SULAYMANIYAH INTERNATIONAL AIRPORT
  • SulyAir
  • SulyAir
1 1
Arrival

ArrivalsMore >>

Departure

DeparturesMore >>

TAF

TAF ORSU 281700Z 2818/2918 03020KT CAVOK
TEMPO 2904/2914 G30KT=

METARs

METAR ORSU 281800Z 04025KT CAVOK 29/07 Q1015=